Time;durP1;ratioP1;P1;durP2;ratioP2;P2;SDS_P1;SDS_P2;PMS_P1;PMS_P2;Temp;Humidity;BMP_temperature;BMP_pressure;BME280_temperature;BME280_humidity;BME280_pressure;Samples;Min_cycle;Max_cycle;Signal;HPM_P1;HPM_P2
2019/05/21 00:02:14;;;;;;;6.47;5.29;;;;;;;19.94;48.36;99639.25;;;;-53
2019/05/21 00:05:14;;;;;;;6.34;5.55;;;;;;;19.93;48.32;99636.44;;;;-53
2019/05/21 00:08:14;;;;;;;5.95;5.36;;;;;;;19.94;48.34;99635.86;;;;-53
2019/05/21 00:11:14;;;;;;;5.93;5.33;;;;;;;19.92;48.30;99639.29;;;;-53
2019/05/21 00:14:14;;;;;;;5.89;5.31;;;;;;;19.92;48.32;99637.02;;;;-54
2019/05/21 00:17:14;;;;;;;5.72;5.22;;;;;;;19.92;48.35;99638.99;;;;-53
2019/05/21 00:20:14;;;;;;;5.54;5.04;;;;;;;19.91;48.29;99638.56;;;;-53
2019/05/21 00:23:14;;;;;;;5.52;5.02;;;;;;;19.91;48.34;99638.33;;;;-53
2019/05/21 00:26:14;;;;;;;5.90;5.40;;;;;;;19.90;48.27;99633.84;;;;-53
2019/05/21 00:29:14;;;;;;;5.80;5.30;;;;;;;19.90;48.33;99633.94;;;;-53
2019/05/21 00:32:14;;;;;;;5.73;5.23;;;;;;;19.90;48.33;99631.26;;;;-54
2019/05/21 00:35:14;;;;;;;5.49;4.99;;;;;;;19.89;48.31;99632.12;;;;-54
2019/05/21 00:38:14;;;;;;;5.82;5.32;;;;;;;19.88;48.34;99633.81;;;;-53
2019/05/21 00:41:14;;;;;;;5.78;5.27;;;;;;;19.87;48.24;99631.50;;;;-53
2019/05/21 00:44:14;;;;;;;5.83;5.29;;;;;;;19.87;48.33;99632.61;;;;-54
2019/05/21 00:47:14;;;;;;;6.21;5.53;;;;;;;19.87;48.36;99631.77;;;;-53
2019/05/21 00:50:14;;;;;;;5.79;5.25;;;;;;;19.86;48.39;99627.45;;;;-54
2019/05/21 00:53:14;;;;;;;5.49;4.99;;;;;;;19.86;48.37;99630.80;;;;-53
2019/05/21 00:56:14;;;;;;;6.06;5.32;;;;;;;19.87;48.32;99630.50;;;;-53
2019/05/21 00:59:14;;;;;;;5.72;5.22;;;;;;;19.85;48.28;99631.70;;;;-53
2019/05/21 01:02:14;;;;;;;5.59;5.09;;;;;;;19.85;48.35;99637.41;;;;-54
2019/05/21 01:05:14;;;;;;;5.39;4.91;;;;;;;19.85;48.35;99636.30;;;;-53
2019/05/21 01:08:14;;;;;;;5.63;5.13;;;;;;;19.85;48.32;99644.08;;;;-52
2019/05/21 01:11:14;;;;;;;5.85;5.35;;;;;;;19.83;48.35;99641.37;;;;-53
2019/05/21 01:14:14;;;;;;;5.63;5.13;;;;;;;19.83;48.39;99642.27;;;;-53
2019/05/21 01:17:14;;;;;;;5.49;4.99;;;;;;;19.83;48.37;99644.05;;;;-54
2019/05/21 01:20:14;;;;;;;5.60;5.10;;;;;;;19.83;48.35;99645.80;;;;-53
2019/05/21 01:23:14;;;;;;;5.28;4.78;;;;;;;19.82;48.36;99644.19;;;;-53
2019/05/21 01:26:14;;;;;;;5.44;4.94;;;;;;;19.82;48.33;99637.82;;;;-53
2019/05/21 01:29:14;;;;;;;5.51;5.01;;;;;;;19.81;48.28;99640.20;;;;-53
2019/05/21 01:32:14;;;;;;;5.65;5.15;;;;;;;19.82;48.36;99643.42;;;;-53
2019/05/21 01:35:14;;;;;;;5.81;5.21;;;;;;;19.81;48.29;99643.89;;;;-53
2019/05/21 01:38:14;;;;;;;5.49;4.99;;;;;;;19.81;48.30;99641.55;;;;-53
2019/05/21 01:41:14;;;;;;;5.57;5.07;;;;;;;19.80;48.34;99637.59;;;;-53
2019/05/21 01:44:14;;;;;;;5.49;4.99;;;;;;;19.80;48.37;99637.83;;;;-53
2019/05/21 01:47:14;;;;;;;5.17;4.69;;;;;;;19.80;48.25;99632.80;;;;-54
2019/05/21 01:50:14;;;;;;;5.39;4.89;;;;;;;19.78;48.28;99631.50;;;;-53
2019/05/21 01:53:14;;;;;;;5.10;4.70;;;;;;;19.78;48.25;99632.34;;;;-53
2019/05/21 01:56:14;;;;;;;5.17;4.69;;;;;;;19.79;48.29;99636.30;;;;-53
2019/05/21 01:59:14;;;;;;;5.42;4.92;;;;;;;19.77;48.33;99636.66;;;;-53
2019/05/21 02:02:14;;;;;;;5.46;4.96;;;;;;;19.78;48.31;99642.29;;;;-54
2019/05/21 02:05:14;;;;;;;5.09;4.67;;;;;;;19.77;48.43;99639.41;;;;-53
2019/05/21 02:08:15;;;;;;;5.21;4.79;;;;;;;19.76;48.31;99636.13;;;;-53
2019/05/21 02:11:14;;;;;;;4.98;4.57;;;;;;;19.76;48.30;99632.18;;;;-53
2019/05/21 02:14:14;;;;;;;5.06;4.59;;;;;;;19.76;48.32;99632.18;;;;-53
2019/05/21 02:17:14;;;;;;;5.09;4.69;;;;;;;19.76;48.34;99635.02;;;;-54
2019/05/21 02:20:14;;;;;;;5.19;4.67;;;;;;;19.75;48.30;99637.17;;;;-53
2019/05/21 02:23:14;;;;;;;5.22;4.76;;;;;;;19.74;48.28;99635.57;;;;-53
2019/05/21 02:26:14;;;;;;;5.22;4.77;;;;;;;19.75;48.25;99632.48;;;;-53
2019/05/21 02:29:14;;;;;;;4.98;4.56;;;;;;;19.75;48.22;99636.67;;;;-53
2019/05/21 02:32:14;;;;;;;5.17;4.67;;;;;;;19.75;48.34;99636.34;;;;-53
2019/05/21 02:35:14;;;;;;;5.52;4.98;;;;;;;19.73;48.27;99632.02;;;;-53
2019/05/21 02:38:14;;;;;;;4.81;4.41;;;;;;;19.72;48.27;99632.93;;;;-53
2019/05/21 02:41:14;;;;;;;4.86;4.46;;;;;;;19.73;48.24;99635.34;;;;-52
2019/05/21 02:44:14;;;;;;;5.16;4.66;;;;;;;19.72;48.28;99636.28;;;;-53
2019/05/21 02:47:14;;;;;;;4.83;4.43;;;;;;;19.72;48.26;99634.50;;;;-53
2019/05/21 02:50:14;;;;;;;4.92;4.42;;;;;;;19.72;48.25;99634.47;;;;-53
2019/05/21 02:53:14;;;;;;;4.72;4.32;;;;;;;19.72;48.28;99630.28;;;;-53
2019/05/21 02:56:14;;;;;;;4.87;4.47;;;;;;;19.71;48.25;99627.17;;;;-53
2019/05/21 02:59:14;;;;;;;4.73;4.33;;;;;;;19.71;48.35;99627.27;;;;-54
2019/05/21 03:02:37;;;;;;;5.28;4.78;;;;;;;19.71;48.26;99625.90;;;;-53
2019/05/21 03:05:14;;;;;;;5.08;4.68;;;;;;;19.70;48.30;99625.40;;;;-53
2019/05/21 03:08:14;;;;;;;4.96;4.56;;;;;;;19.69;48.23;99625.37;;;;-53
2019/05/21 03:11:14;;;;;;;4.79;4.39;;;;;;;19.69;48.26;99624.12;;;;-53
2019/05/21 03:14:14;;;;;;;4.42;4.07;;;;;;;19.68;48.32;99631.80;;;;-54
2019/05/21 03:17:14;;;;;;;4.63;4.23;;;;;;;19.68;48.31;99634.65;;;;-53
2019/05/21 03:20:14;;;;;;;4.53;4.13;;;;;;;19.68;48.28;99638.57;;;;-52
2019/05/21 03:23:14;;;;;;;4.71;4.31;;;;;;;19.68;48.26;99641.39;;;;-53
2019/05/21 03:26:14;;;;;;;4.64;4.24;;;;;;;19.68;48.26;99645.41;;;;-54
2019/05/21 03:29:14;;;;;;;4.63;4.23;;;;;;;19.67;48.30;99640.55;;;;-53
2019/05/21 03:32:14;;;;;;;4.91;4.51;;;;;;;19.67;48.22;99640.45;;;;-53
2019/05/21 03:35:14;;;;;;;4.38;4.08;;;;;;;19.67;48.25;99639.72;;;;-53
2019/05/21 03:38:14;;;;;;;4.55;4.15;;;;;;;19.67;48.22;99637.70;;;;-54
2019/05/21 03:41:14;;;;;;;4.58;4.18;;;;;;;19.67;48.18;99641.83;;;;-53
2019/05/21 03:44:14;;;;;;;4.58;4.18;;;;;;;19.67;48.17;99639.38;;;;-53
2019/05/21 03:47:14;;;;;;;4.19;3.89;;;;;;;19.67;48.17;99639.48;;;;-53
2019/05/21 03:50:14;;;;;;;4.45;4.05;;;;;;;19.67;48.06;99643.23;;;;-53
2019/05/21 03:53:14;;;;;;;4.60;4.20;;;;;;;19.68;48.09;99648.86;;;;-53
2019/05/21 03:56:14;;;;;;;4.59;4.19;;;;;;;19.68;47.99;99659.58;;;;-53
2019/05/21 03:59:14;;;;;;;4.38;3.99;;;;;;;19.68;48.01;99665.20;;;;-53
2019/05/21 04:02:14;;;;;;;4.21;3.89;;;;;;;19.69;48.02;99668.66;;;;-53
2019/05/21 04:05:14;;;;;;;4.37;3.97;;;;;;;19.70;48.01;99679.30;;;;-53
2019/05/21 04:08:14;;;;;;;4.47;4.05;;;;;;;19.70;47.98;99675.45;;;;-53
2019/05/21 04:11:14;;;;;;;4.41;4.01;;;;;;;19.70;47.91;99681.95;;;;-53
2019/05/21 04:14:30;;;;;;;4.03;3.73;;;;;;;19.70;47.89;99680.11;;;;-53
2019/05/21 04:17:28;;;;;;;3.98;3.68;;;;;;;19.71;47.89;99683.02;;;;-52
2019/05/21 04:20:14;;;;;;;4.50;4.10;;;;;;;19.71;47.95;99682.98;;;;-52
2019/05/21 04:23:14;;;;;;;3.98;3.68;;;;;;;19.72;47.84;99687.24;;;;-52
2019/05/21 04:26:14;;;;;;;4.02;3.72;;;;;;;19.71;47.89;99686.84;;;;-52
2019/05/21 04:29:14;;;;;;;3.89;3.59;;;;;;;19.72;47.95;99689.52;;;;-52
2019/05/21 04:32:14;;;;;;;3.85;3.55;;;;;;;19.72;47.87;99689.85;;;;-53
2019/05/21 04:35:14;;;;;;;4.17;3.77;;;;;;;19.72;47.87;99688.78;;;;-52
2019/05/21 04:38:14;;;;;;;3.83;3.53;;;;;;;19.74;47.88;99690.19;;;;-61
2019/05/21 04:41:14;;;;;;;3.89;3.52;;;;;;;19.74;47.78;99685.92;;;;-61
2019/05/21 04:44:14;;;;;;;4.09;3.79;;;;;;;19.74;47.82;99674.87;;;;-60
2019/05/21 04:47:14;;;;;;;3.79;3.49;;;;;;;19.74;47.80;99669.41;;;;-52
2019/05/21 04:50:14;;;;;;;3.80;3.50;;;;;;;19.74;47.77;99654.09;;;;-52
2019/05/21 04:53:14;;;;;;;3.91;3.61;;;;;;;19.74;47.72;99642.70;;;;-52
2019/05/21 04:56:14;;;;;;;3.73;3.43;;;;;;;19.74;47.71;99645.05;;;;-52
2019/05/21 04:59:14;;;;;;;3.90;3.60;;;;;;;19.75;47.71;99643.98;;;;-53
2019/05/21 05:02:14;;;;;;;3.79;3.49;;;;;;;19.75;47.74;99644.48;;;;-53
2019/05/21 05:05:14;;;;;;;3.88;3.58;;;;;;;19.75;47.79;99643.87;;;;-52
2019/05/21 05:08:14;;;;;;;4.03;3.73;;;;;;;19.75;47.75;99640.13;;;;-52
2019/05/21 05:11:14;;;;;;;3.79;3.49;;;;;;;19.75;47.78;99650.84;;;;-52
2019/05/21 05:14:14;;;;;;;3.53;3.25;;;;;;;19.75;47.72;99655.88;;;;-52
2019/05/21 05:17:14;;;;;;;3.72;3.42;;;;;;;19.75;47.77;99660.23;;;;-52
2019/05/21 05:20:14;;;;;;;3.94;3.64;;;;;;;19.75;47.82;99654.86;;;;-52
2019/05/21 05:23:14;;;;;;;3.85;3.55;;;;;;;19.75;47.74;99658.88;;;;-52
2019/05/21 05:26:14;;;;;;;3.65;3.35;;;;;;;19.75;47.76;99656.81;;;;-52
2019/05/21 05:29:14;;;;;;;3.72;3.42;;;;;;;19.75;47.76;99652.02;;;;-52
2019/05/21 05:32:14;;;;;;;3.46;3.16;;;;;;;19.75;47.85;99665.69;;;;-53
2019/05/21 05:35:14;;;;;;;3.82;3.33;;;;;;;19.75;47.81;99656.04;;;;-53
2019/05/21 05:38:14;;;;;;;3.67;3.37;;;;;;;19.75;47.74;99656.81;;;;-52
2019/05/21 05:41:14;;;;;;;3.59;3.29;;;;;;;19.77;48.00;99665.38;;;;-51
2019/05/21 05:44:14;;;;;;;4.35;3.57;;;;;;;19.79;48.17;99692.08;;;;-56
2019/05/21 05:47:14;;;;;;;5.24;3.40;;;;;;;19.79;48.06;99683.30;;;;-59
2019/05/21 05:50:15;;;;;;;5.40;3.59;;;;;;;19.80;48.03;99690.60;;;;-53
2019/05/21 05:53:14;;;;;;;3.68;3.37;;;;;;;19.79;48.02;99692.02;;;;-53
2019/05/21 05:56:14;;;;;;;3.61;3.17;;;;;;;19.80;47.96;99693.89;;;;-52
2019/05/21 05:59:14;;;;;;;3.55;3.25;;;;;;;19.81;48.23;99685.11;;;;-51
2019/05/21 06:02:14;;;;;;;4.60;3.31;;;;;;;19.82;47.92;99696.70;;;;-53
2019/05/21 06:05:14;;;;;;;3.67;3.20;;;;;;;19.81;48.05;99701.80;;;;-52
2019/05/21 06:08:14;;;;;;;3.65;3.33;;;;;;;19.82;48.01;99699.21;;;;-52
2019/05/21 06:11:14;;;;;;;4.91;3.40;;;;;;;19.81;48.10;99698.34;;;;-52
2019/05/21 06:14:14;;;;;;;3.52;3.21;;;;;;;19.80;48.00;99701.66;;;;-52
2019/05/21 06:17:14;;;;;;;4.35;3.53;;;;;;;19.80;48.04;99706.79;;;;-51
2019/05/21 06:20:14;;;;;;;5.37;3.24;;;;;;;19.79;48.12;99701.30;;;;-52
2019/05/21 06:23:14;;;;;;;4.76;3.49;;;;;;;19.79;48.06;99703.98;;;;-51
2019/05/21 06:26:14;;;;;;;4.79;3.34;;;;;;;19.78;48.04;99707.23;;;;-51
2019/05/21 06:29:14;;;;;;;3.91;3.18;;;;;;;19.79;48.42;99704.48;;;;-52
2019/05/21 06:32:14;;;;;;;5.21;3.47;;;;;;;19.81;48.63;99704.14;;;;-52
2019/05/21 06:35:14;;;;;;;3.31;3.03;;;;;;;19.82;48.79;99700.65;;;;-52
2019/05/21 06:38:14;;;;;;;3.43;3.05;;;;;;;19.85;48.82;99696.79;;;;-51
2019/05/21 06:41:14;;;;;;;4.11;3.15;;;;;;;19.89;48.84;99693.46;;;;-53
2019/05/21 06:44:14;;;;;;;5.09;3.18;;;;;;;19.93;48.86;99688.92;;;;-52
2019/05/21 06:47:14;;;;;;;3.55;2.89;;;;;;;19.98;48.67;99692.02;;;;-52
2019/05/21 06:50:14;;;;;;;5.03;3.21;;;;;;;20.03;48.69;99694.75;;;;-51
2019/05/21 06:53:14;;;;;;;4.32;3.08;;;;;;;20.11;49.03;99696.73;;;;-52
2019/05/21 06:56:14;;;;;;;5.78;3.19;;;;;;;20.18;49.07;99704.59;;;;-60
2019/05/21 06:59:14;;;;;;;10.87;3.31;;;;;;;20.25;49.79;99707.17;;;;-57
2019/05/21 07:02:14;;;;;;;6.28;3.15;;;;;;;20.28;48.79;99711.29;;;;-57
2019/05/21 07:05:14;;;;;;;6.85;3.13;;;;;;;20.33;48.99;99707.34;;;;-52
2019/05/21 07:08:14;;;;;;;6.02;3.07;;;;;;;20.39;49.07;99714.22;;;;-53
2019/05/21 07:11:14;;;;;;;6.11;2.83;;;;;;;20.44;49.11;99715.70;;;;-52
2019/05/21 07:14:14;;;;;;;3.45;2.85;;;;;;;20.48;49.28;99727.33;;;;-58
2019/05/21 07:17:14;;;;;;;6.01;3.07;;;;;;;20.52;48.96;99728.25;;;;-59
2019/05/21 07:20:14;;;;;;;3.70;2.92;;;;;;;20.56;48.82;99731.21;;;;-54
2019/05/21 07:23:14;;;;;;;6.03;3.24;;;;;;;20.58;48.81;99729.86;;;;-53
2019/05/21 07:26:14;;;;;;;5.33;2.87;;;;;;;20.63;48.82;99728.29;;;;-53
2019/05/21 07:29:14;;;;;;;5.00;2.63;;;;;;;20.67;48.62;99719.01;;;;-53
2019/05/21 07:32:14;;;;;;;5.51;3.00;;;;;;;20.70;48.38;99727.65;;;;-52
2019/05/21 07:35:14;;;;;;;3.87;2.74;;;;;;;20.73;48.45;99723.30;;;;-54
2019/05/21 07:38:14;;;;;;;10.45;3.03;;;;;;;20.81;49.12;99733.86;;;;-54
2019/05/21 07:41:14;;;;;;;4.49;2.77;;;;;;;20.81;48.23;99735.70;;;;-53
2019/05/21 07:44:14;;;;;;;6.27;2.77;;;;;;;20.86;48.61;99741.52;;;;-51
2019/05/21 07:47:14;;;;;;;5.46;2.52;;;;;;;20.89;48.19;99740.52;;;;-52
2019/05/21 07:50:14;;;;;;;4.32;2.63;;;;;;;20.91;48.27;99730.00;;;;-56
2019/05/21 07:53:14;;;;;;;2.97;2.69;;;;;;;20.93;48.22;99722.77;;;;-52
2019/05/21 07:56:14;;;;;;;5.10;2.71;;;;;;;20.96;48.19;99718.55;;;;-51
2019/05/21 07:59:14;;;;;;;3.07;2.72;;;;;;;20.98;48.50;99729.52;;;;-52
2019/05/21 08:02:14;;;;;;;3.75;2.46;;;;;;;21.03;48.59;99765.41;;;;-52
2019/05/21 08:05:14;;;;;;;5.39;2.73;;;;;;;21.05;48.50;99768.45;;;;-54
2019/05/21 08:08:14;;;;;;;20.07;3.61;;;;;;;21.07;48.62;99771.16;;;;-56
2019/05/21 08:11:14;;;;;;;7.35;2.77;;;;;;;21.09;48.13;99780.27;;;;-57
2019/05/21 08:14:14;;;;;;;4.73;2.52;;;;;;;21.10;48.14;99772.05;;;;-59
2019/05/21 08:17:14;;;;;;;4.29;2.71;;;;;;;21.10;48.00;99780.30;;;;-57
2019/05/21 08:20:14;;;;;;;10.55;2.59;;;;;;;21.11;47.88;99784.83;;;;-59
2019/05/21 08:23:14;;;;;;;3.25;2.63;;;;;;;21.13;48.41;99779.84;;;;-57
2019/05/21 08:26:14;;;;;;;4.24;2.47;;;;;;;21.14;48.34;99772.66;;;;-62
2019/05/21 08:29:14;;;;;;;3.39;2.13;;;;;;;21.14;48.16;99778.80;;;;-54
2019/05/21 08:32:14;;;;;;;3.69;2.38;;;;;;;21.14;47.97;99799.19;;;;-57
2019/05/21 08:35:14;;;;;;;4.13;2.44;;;;;;;21.14;48.06;99803.22;;;;-56
2019/05/21 08:38:14;;;;;;;2.59;2.39;;;;;;;21.14;48.49;99805.83;;;;-54
2019/05/21 08:41:14;;;;;;;3.65;2.55;;;;;;;21.16;48.50;99799.64;;;;-59
2019/05/21 08:44:14;;;;;;;3.92;2.30;;;;;;;21.15;47.93;99797.80;;;;-61
2019/05/21 08:47:14;;;;;;;3.77;2.23;;;;;;;21.14;47.62;99810.00;;;;-61
2019/05/21 08:50:14;;;;;;;2.45;2.25;;;;;;;21.13;47.94;99814.67;;;;-61
2019/05/21 08:53:14;;;;;;;4.50;2.61;;;;;;;21.11;47.67;99807.40;;;;-61
2019/05/21 08:56:14;;;;;;;5.95;2.45;;;;;;;21.10;48.03;99814.95;;;;-61
2019/05/21 08:59:14;;;;;;;4.87;2.53;;;;;;;21.10;48.18;99823.16;;;;-61
2019/05/21 09:02:14;;;;;;;5.03;2.29;;;;;;;21.09;48.04;99815.60;;;;-58
2019/05/21 09:05:14;;;;;;;5.60;2.37;;;;;;;21.09;48.17;99836.59;;;;-59
2019/05/21 09:08:14;;;;;;;3.76;2.40;;;;;;;21.10;48.19;99827.11;;;;-52
2019/05/21 09:11:14;;;;;;;4.17;2.41;;;;;;;21.10;48.40;99838.23;;;;-52
2019/05/21 09:14:14;;;;;;;5.76;2.61;;;;;;;21.12;48.58;99848.73;;;;-56
2019/05/21 09:17:14;;;;;;;5.63;2.42;;;;;;;21.10;48.43;99834.91;;;;-54
2019/05/21 09:20:15;;;;;;;4.05;2.40;;;;;;;21.10;48.30;99828.73;;;;-57
2019/05/21 09:23:14;;;;;;;4.79;2.23;;;;;;;21.08;48.22;99821.05;;;;-56
2019/05/21 09:26:14;;;;;;;3.87;2.53;;;;;;;21.09;48.29;99844.55;;;;-55
2019/05/21 09:29:14;;;;;;;2.50;2.30;;;;;;;21.08;48.29;99842.37;;;;-52
2019/05/21 09:32:14;;;;;;;3.88;2.29;;;;;;;21.06;48.30;99844.66;;;;-56
2019/05/21 09:35:14;;;;;;;3.63;2.23;;;;;;;21.05;48.24;99843.63;;;;-57
2019/05/21 09:38:14;;;;;;;2.82;2.30;;;;;;;21.05;48.37;99844.97;;;;-57
2019/05/21 09:41:14;;;;;;;2.27;2.07;;;;;;;21.04;48.28;99846.78;;;;-56
2019/05/21 09:44:14;;;;;;;3.86;2.13;;;;;;;21.03;48.40;99852.13;;;;-54
2019/05/21 09:47:14;;;;;;;3.73;2.25;;;;;;;21.03;48.27;99860.52;;;;-49
2019/05/21 09:50:14;;;;;;;3.27;2.09;;;;;;;21.03;48.34;99858.92;;;;-48
2019/05/21 09:53:14;;;;;;;6.98;2.40;;;;;;;21.03;48.37;99853.38;;;;-51
2019/05/21 09:57:14;;;;;;;4.37;2.15;;;;;;;21.01;48.01;99861.55;;;;-51
2019/05/21 10:00:31;;;;;;;3.89;1.99;;;;;;;20.99;48.14;99863.40;;;;-51
2019/05/21 10:03:15;;;;;;;3.35;2.05;;;;;;;20.97;48.14;99863.61;;;;-51
2019/05/21 10:06:14;;;;;;;3.32;2.19;;;;;;;20.95;48.04;99878.49;;;;-52
2019/05/21 10:09:16;;;;;;;4.80;2.41;;;;;;;20.95;48.26;99875.98;;;;-53
2019/05/21 10:12:14;;;;;;;3.19;2.20;;;;;;;20.93;48.42;99879.95;;;;-53
2019/05/21 10:15:14;;;;;;;3.23;2.40;;;;;;;20.93;48.65;99883.91;;;;-54
2019/05/21 10:18:14;;;;;;;4.80;2.11;;;;;;;20.92;48.76;99890.56;;;;-54
2019/05/21 10:21:14;;;;;;;3.81;2.15;;;;;;;20.91;48.71;99894.59;;;;-52
2019/05/21 10:24:15;;;;;;;4.02;2.15;;;;;;;20.92;48.86;99899.72;;;;-52
2019/05/21 10:27:14;;;;;;;5.71;2.11;;;;;;;20.92;48.73;99904.92;;;;-56
2019/05/21 10:30:14;;;;;;;3.04;1.95;;;;;;;20.91;48.64;99909.94;;;;-60
2019/05/21 10:33:14;;;;;;;3.47;2.13;;;;;;;20.90;48.55;99911.08;;;;-49
2019/05/21 10:36:14;;;;;;;3.75;1.97;;;;;;;20.89;48.61;99917.09;;;;-49
2019/05/21 10:39:14;;;;;;;3.14;1.99;;;;;;;20.86;48.49;99917.77;;;;-56
2019/05/21 10:42:14;;;;;;;5.23;2.07;;;;;;;20.86;48.53;99930.42;;;;-50
2019/05/21 10:45:14;;;;;;;3.83;2.09;;;;;;;20.85;48.59;99924.45;;;;-54
2019/05/21 10:48:14;;;;;;;5.90;2.30;;;;;;;20.84;48.60;99929.02;;;;-55
2019/05/21 10:51:14;;;;;;;7.81;2.20;;;;;;;20.85;48.73;99938.95;;;;-56
2019/05/21 10:54:14;;;;;;;8.85;2.27;;;;;;;20.86;48.79;99936.20;;;;-54
2019/05/21 10:57:14;;;;;;;7.54;2.39;;;;;;;20.85;48.99;99940.33;;;;-51
2019/05/21 11:00:18;;;;;;;9.32;2.25;;;;;;;20.84;49.18;99941.81;;;;-49
2019/05/21 11:03:24;;;;;;;6.43;2.36;;;;;;;20.86;49.12;99947.91;;;;-52
2019/05/21 11:06:14;;;;;;;9.00;2.15;;;;;;;20.86;49.07;99950.60;;;;-51
2019/05/21 11:09:17;;;;;;;6.56;2.29;;;;;;;20.89;49.32;99954.19;;;;-52
2019/05/21 11:12:14;;;;;;;6.02;2.21;;;;;;;20.89;49.51;99957.47;;;;-53
2019/05/21 11:15:14;;;;;;;5.14;2.21;;;;;;;20.91;49.46;99958.38;;;;-52
2019/05/21 11:18:14;;;;;;;3.96;2.21;;;;;;;20.93;49.57;99962.03;;;;-51
2019/05/21 11:21:14;;;;;;;3.71;2.20;;;;;;;20.98;49.55;99969.23;;;;-52
2019/05/21 11:24:14;;;;;;;4.50;2.19;;;;;;;21.02;49.10;99974.32;;;;-53
2019/05/21 11:27:14;;;;;;;4.99;2.12;;;;;;;21.06;48.96;99976.16;;;;-52
2019/05/21 11:30:14;;;;;;;2.19;1.99;;;;;;;21.09;49.30;99984.95;;;;-51
2019/05/21 11:33:14;;;;;;;5.33;2.26;;;;;;;21.15;49.40;99987.61;;;;-52
2019/05/21 11:36:14;;;;;;;6.35;2.14;;;;;;;21.15;48.64;99989.62;;;;-52
2019/05/21 11:39:14;;;;;;;4.83;1.83;;;;;;;21.16;48.39;99998.63;;;;-63
2019/05/21 11:42:14;;;;;;;4.39;2.01;;;;;;;21.18;48.21;100006.58;;;;-52
2019/05/21 11:45:14;;;;;;;3.23;2.17;;;;;;;21.22;48.96;100007.88;;;;-53
2019/05/21 11:48:14;;;;;;;3.92;1.96;;;;;;;21.26;49.02;100009.50;;;;-52
2019/05/21 11:51:14;;;;;;;2.27;1.85;;;;;;;21.28;48.56;100011.01;;;;-52
2019/05/21 11:54:14;;;;;;;7.95;1.97;;;;;;;21.32;48.53;100017.24;;;;-51
2019/05/21 11:57:14;;;;;;;2.87;1.98;;;;;;;21.36;48.55;100019.84;;;;-51
2019/05/21 12:00:14;;;;;;;2.84;1.98;;;;;;;21.37;48.41;100021.33;;;;-52
2019/05/21 12:03:14;;;;;;;4.37;2.07;;;;;;;21.39;48.29;100025.11;;;;-53
2019/05/21 12:06:14;;;;;;;3.14;1.79;;;;;;;21.42;48.66;100033.50;;;;-53
2019/05/21 12:09:14;;;;;;;3.42;1.93;;;;;;;21.44;48.09;100031.01;;;;-52
2019/05/21 12:12:14;;;;;;;3.13;1.89;;;;;;;21.46;48.49;100033.59;;;;-58
2019/05/21 12:15:14;;;;;;;4.49;1.80;;;;;;;21.49;48.38;100039.42;;;;-59
2019/05/21 12:18:14;;;;;;;4.12;1.87;;;;;;;21.49;48.54;100038.48;;;;-59
2019/05/21 12:21:14;;;;;;;3.37;1.86;;;;;;;21.52;48.83;100041.42;;;;-58
2019/05/21 12:24:14;;;;;;;3.43;1.71;;;;;;;21.55;48.31;100039.23;;;;-58
2019/05/21 12:27:14;;;;;;;4.69;1.77;;;;;;;21.56;48.59;100042.55;;;;-58
2019/05/21 12:30:14;;;;;;;3.51;1.77;;;;;;;21.58;47.96;100047.72;;;;-57
2019/05/21 12:33:14;;;;;;;2.31;1.80;;;;;;;21.62;48.33;100051.30;;;;-57
2019/05/21 12:36:14;;;;;;;3.59;1.73;;;;;;;21.63;48.28;100051.93;;;;-58
2019/05/21 12:39:14;;;;;;;2.39;1.63;;;;;;;21.64;47.96;100062.14;;;;-57
2019/05/21 12:42:14;;;;;;;4.13;1.81;;;;;;;21.65;48.50;100069.16;;;;-53
2019/05/21 12:45:14;;;;;;;3.23;1.85;;;;;;;21.67;48.00;100071.95;;;;-57
2019/05/21 12:48:14;;;;;;;3.34;1.70;;;;;;;21.67;48.04;100080.28;;;;-54
2019/05/21 12:51:14;;;;;;;2.23;1.69;;;;;;;21.69;48.01;100078.99;;;;-57
2019/05/21 12:54:14;;;;;;;1.82;1.59;;;;;;;21.70;48.11;100083.22;;;;-57
2019/05/21 12:57:14;;;;;;;2.78;1.61;;;;;;;21.71;47.95;100078.72;;;;-52
2019/05/21 13:00:14;;;;;;;4.95;1.72;;;;;;;21.74;47.79;100086.88;;;;-52
2019/05/21 13:03:14;;;;;;;2.60;1.62;;;;;;;21.75;47.88;100089.32;;;;-52
2019/05/21 13:06:14;;;;;;;2.59;1.74;;;;;;;21.77;48.30;100096.10;;;;-52
2019/05/21 13:09:14;;;;;;;1.69;1.59;;;;;;;21.77;47.97;100093.58;;;;-55
2019/05/21 13:12:14;;;;;;;2.61;1.75;;;;;;;21.79;48.39;100098.95;;;;-57
2019/05/21 13:15:14;;;;;;;3.27;1.57;;;;;;;21.81;47.94;100104.63;;;;-56
2019/05/21 13:18:14;;;;;;;3.69;1.66;;;;;;;21.82;48.29;100111.05;;;;-58
2019/05/21 13:21:14;;;;;;;2.62;1.67;;;;;;;21.82;47.69;100115.02;;;;-58
2019/05/21 13:24:14;;;;;;;3.79;1.81;;;;;;;21.80;47.40;100120.40;;;;-58
2019/05/21 13:27:14;;;;;;;8.13;1.67;;;;;;;21.79;47.28;100122.72;;;;-58
2019/05/21 13:30:14;;;;;;;2.27;1.61;;;;;;;21.78;47.39;100123.70;;;;-58
2019/05/21 13:33:14;;;;;;;1.95;1.67;;;;;;;21.78;47.44;100129.25;;;;-58
2019/05/21 13:36:14;;;;;;;1.87;1.56;;;;;;;21.77;47.12;100135.03;;;;-57
2019/05/21 13:39:14;;;;;;;2.46;1.51;;;;;;;21.76;47.08;100141.30;;;;-58
2019/05/21 13:42:14;;;;;;;2.69;1.54;;;;;;;21.76;47.02;100144.48;;;;-58
2019/05/21 13:45:14;;;;;;;2.71;1.75;;;;;;;21.77;47.10;100150.06;;;;-58
2019/05/21 13:48:14;;;;;;;3.25;1.49;;;;;;;21.76;46.98;100146.77;;;;-58
2019/05/21 13:51:14;;;;;;;1.55;1.43;;;;;;;21.76;46.94;100154.00;;;;-53
2019/05/21 13:54:14;;;;;;;1.88;1.45;;;;;;;21.76;46.97;100160.11;;;;-52
2019/05/21 13:57:14;;;;;;;1.61;1.50;;;;;;;21.75;46.92;100156.48;;;;-52
2019/05/21 14:00:18;;;;;;;1.62;1.51;;;;;;;21.75;46.91;100160.92;;;;-52
2019/05/21 14:03:14;;;;;;;3.78;1.65;;;;;;;21.76;46.92;100161.23;;;;-52
2019/05/21 14:06:14;;;;;;;2.01;1.49;;;;;;;21.76;47.06;100163.64;;;;-52
2019/05/21 14:09:14;;;;;;;1.57;1.47;;;;;;;21.76;46.85;100168.02;;;;-52
2019/05/21 14:12:14;;;;;;;2.31;1.43;;;;;;;21.76;46.87;100171.22;;;;-52
2019/05/21 14:15:14;;;;;;;1.69;1.50;;;;;;;21.76;46.86;100174.00;;;;-52
2019/05/21 14:18:14;;;;;;;1.71;1.43;;;;;;;21.77;46.81;100172.42;;;;-52
2019/05/21 14:21:14;;;;;;;1.46;1.36;;;;;;;21.77;46.98;100178.41;;;;-53
2019/05/21 14:24:14;;;;;;;2.27;1.59;;;;;;;21.80;47.70;100176.31;;;;-56
2019/05/21 14:27:14;;;;;;;2.89;1.50;;;;;;;21.83;47.88;100182.59;;;;-51
2019/05/21 14:30:14;;;;;;;2.51;1.39;;;;;;;21.85;48.05;100187.29;;;;-58
2019/05/21 14:33:14;;;;;;;1.83;1.43;;;;;;;21.86;47.71;100189.50;;;;-58
2019/05/21 14:36:14;;;;;;;1.93;1.60;;;;;;;21.87;47.98;100190.14;;;;-59
2019/05/21 14:39:16;;;;;;;1.87;1.40;;;;;;;21.88;47.78;100193.16;;;;-58
2019/05/21 14:42:14;;;;;;;2.54;1.45;;;;;;;21.91;47.87;100195.61;;;;-51
2019/05/21 14:45:14;;;;;;;3.89;1.61;;;;;;;21.93;47.93;100200.04;;;;-51
2019/05/21 14:48:14;;;;;;;2.23;1.50;;;;;;;21.96;49.09;100206.52;;;;-51
2019/05/21 14:51:14;;;;;;;1.75;1.37;;;;;;;21.99;49.21;100208.73;;;;-52
2019/05/21 14:54:14;;;;;;;1.66;1.50;;;;;;;21.98;47.81;100207.09;;;;-51
2019/05/21 14:57:14;;;;;;;2.11;1.53;;;;;;;22.02;48.64;100211.24;;;;-56
2019/05/21 15:00:21;;;;;;;1.70;1.45;;;;;;;22.04;48.78;100219.11;;;;-53
2019/05/21 15:03:14;;;;;;;1.71;1.48;;;;;;;22.03;48.01;100216.31;;;;-53
2019/05/21 15:06:14;;;;;;;1.60;1.50;;;;;;;22.04;48.16;100220.45;;;;-51
2019/05/21 15:09:14;;;;;;;1.51;1.33;;;;;;;22.06;48.42;100222.20;;;;-50
2019/05/21 15:12:14;;;;;;;1.71;1.44;;;;;;;22.06;47.90;100224.81;;;;-50
2019/05/21 15:15:14;;;;;;;2.13;1.48;;;;;;;22.08;48.28;100229.59;;;;-53
2019/05/21 15:18:14;;;;;;;1.95;1.40;;;;;;;22.09;48.25;100229.72;;;;-57
2019/05/21 15:21:38;;;;;;;3.09;1.42;;;;;;;22.08;47.67;100237.83;;;;-59
2019/05/21 15:24:14;;;;;;;1.82;1.40;;;;;;;22.09;47.91;100239.94;;;;-52
2019/05/21 15:27:15;;;;;;;2.26;1.56;;;;;;;22.13;48.10;100240.91;;;;-55
2019/05/21 15:30:14;;;;;;;5.04;1.65;;;;;;;22.12;47.94;100242.32;;;;-50
2019/05/21 15:33:14;;;;;;;3.15;1.39;;;;;;;22.11;47.68;100244.64;;;;-53
2019/05/21 15:36:14;;;;;;;1.96;1.47;;;;;;;22.13;48.36;100247.30;;;;-50
2019/05/21 15:39:14;;;;;;;1.95;1.60;;;;;;;22.13;47.80;100247.39;;;;-54
2019/05/21 15:42:14;;;;;;;1.75;1.49;;;;;;;22.14;47.67;100253.21;;;;-53
2019/05/21 15:45:14;;;;;;;1.54;1.41;;;;;;;22.12;47.27;100251.91;;;;-52
2019/05/21 15:48:14;;;;;;;1.52;1.41;;;;;;;22.11;47.19;100259.78;;;;-52
2019/05/21 15:51:14;;;;;;;1.47;1.37;;;;;;;22.10;47.05;100257.13;;;;-51
2019/05/21 15:54:14;;;;;;;2.60;1.55;;;;;;;22.08;47.07;100255.82;;;;-52
2019/05/21 15:57:14;;;;;;;1.73;1.29;;;;;;;22.08;47.09;100262.78;;;;-52
2019/05/21 16:00:14;;;;;;;1.77;1.40;;;;;;;22.07;47.27;100264.70;;;;-52
2019/05/21 16:03:14;;;;;;;2.33;1.47;;;;;;;22.06;47.01;100267.36;;;;-53
2019/05/21 16:06:14;;;;;;;1.47;1.37;;;;;;;22.06;46.91;100267.27;;;;-51
2019/05/21 16:09:14;;;;;;;1.30;1.20;;;;;;;22.06;46.98;100270.63;;;;-52
2019/05/21 16:12:14;;;;;;;2.59;1.45;;;;;;;22.07;47.38;100269.81;;;;-52
2019/05/21 16:15:14;;;;;;;2.31;1.45;;;;;;;22.09;47.63;100271.39;;;;-60
2019/05/21 16:18:14;;;;;;;2.01;1.35;;;;;;;22.10;47.75;100272.37;;;;-61
2019/05/21 16:21:14;;;;;;;1.46;1.36;;;;;;;22.11;47.70;100273.98;;;;-60
2019/05/21 16:24:14;;;;;;;1.62;1.40;;;;;;;22.12;47.75;100273.88;;;;-61
2019/05/21 16:27:14;;;;;;;1.73;1.30;;;;;;;22.14;48.20;100278.47;;;;-55
2019/05/21 16:30:14;;;;;;;2.49;1.34;;;;;;;22.14;47.55;100278.98;;;;-53
2019/05/21 16:33:14;;;;;;;2.43;1.51;;;;;;;22.16;47.80;100279.75;;;;-55
2019/05/21 16:36:14;;;;;;;1.49;1.39;;;;;;;22.17;47.68;100282.00;;;;-54
2019/05/21 16:39:15;;;;;;;1.81;1.38;;;;;;;22.17;47.79;100286.54;;;;-53
2019/05/21 16:42:14;;;;;;;1.46;1.36;;;;;;;22.17;47.61;100285.87;;;;-54
2019/05/21 16:45:14;;;;;;;2.15;1.41;;;;;;;22.20;47.55;100293.70;;;;-59
2019/05/21 16:48:14;;;;;;;3.63;1.47;;;;;;;22.17;47.16;100288.66;;;;-58
2019/05/21 16:51:14;;;;;;;2.19;1.37;;;;;;;22.18;47.37;100289.56;;;;-58
2019/05/21 16:54:14;;;;;;;2.69;1.31;;;;;;;22.17;46.92;100292.70;;;;-58